Time;durP1;ratioP1;P1;durP2;ratioP2;P2;SDS_P1;SDS_P2;PMS_P1;PMS_P2;Temp;Humidity;BMP_temperature;BMP_pressure;BME280_temperature;BME280_humidity;BME280_pressure;Samples;Min_cycle;Max_cycle;Signal;HPM_P1;HPM_P2
2023/01/05 00:02:27;;;;;;;;;;;9.40;99.90;;;;;;5046826;28;19925;-71
2023/01/05 00:04:57;;;;;;;;;;;9.40;99.90;;;;;;5055470;28;19932;-71
2023/01/05 00:07:26;;;;;;;;;;;9.40;99.90;;;;;;5052491;28;20023;-72
2023/01/05 00:09:55;;;;;;;;;;;9.40;99.90;;;;;;5037050;28;19991;-72
2023/01/05 00:23:34;;;;;;;;;;;9.40;99.90;;;;;;5059670;28;19947;-72
2023/01/05 00:26:05;;;;;;;;;;;9.40;99.90;;;;;;5050146;28;19931;-72
2023/01/05 00:28:35;;;;;;;;;;;9.40;99.90;;;;;;5056046;28;19975;-72
2023/01/05 00:31:03;;;;;;;;;;;9.40;99.90;;;;;;5059070;28;19929;-72
2023/01/05 00:33:32;;;;;;;;;;;9.50;99.90;;;;;;5027486;28;19928;-72
2023/01/05 00:36:00;;;;;;;;;;;9.50;99.90;;;;;;5055254;28;20413;-73
2023/01/05 00:38:30;;;;;;;;;;;9.40;99.90;;;;;;5042411;28;19928;-72
2023/01/05 00:41:00;;;;;;;;;;;9.40;99.90;;;;;;5055846;28;19933;-72
2023/01/05 00:43:28;;;;;;;;;;;9.50;99.90;;;;;;5040323;28;19964;-72
2023/01/05 00:45:58;;;;;;;;;;;9.50;99.90;;;;;;5057023;28;19960;-72
2023/01/05 00:48:26;;;;;;;;;;;9.50;99.90;;;;;;5050362;28;19925;-72
2023/01/05 00:50:55;;;;;;;;;;;9.60;99.90;;;;;;5053986;28;20027;-72
2023/01/05 00:53:23;;;;;;;;;;;9.60;99.90;;;;;;5036745;28;20013;-72
2023/01/05 00:55:56;;;;;;;;;;;9.60;99.90;;;;;;5032832;28;19978;-72
2023/01/05 00:58:24;;;;;;;;;;;9.60;99.90;;;;;;5032344;28;19924;-72
2023/01/05 01:00:59;;;;;;;;;;;9.60;99.90;;;;;;5043604;28;19986;-72
2023/01/05 01:03:29;;;;;;;;;;;9.60;99.90;;;;;;5054729;28;19971;-72
2023/01/05 01:05:58;;;;;;;;;;;9.60;99.90;;;;;;5040932;28;20371;-73
2023/01/05 01:08:29;;;;;;;;;;;9.60;99.90;;;;;;5039862;28;19978;-72
2023/01/05 01:11:02;;;;;;;;;;;9.60;99.90;;;;;;5031832;28;19925;-73
2023/01/05 01:13:32;;;;;;;;;;;9.60;99.90;;;;;;5043219;28;19925;-73
2023/01/05 01:16:06;;;;;;;;;;;9.60;99.90;;;;;;5036166;28;19978;-77
2023/01/05 01:18:35;;;;;;;;;;;9.60;99.90;;;;;;5051490;28;19937;-73
2023/01/05 01:21:05;;;;;;;;;;;9.70;99.90;;;;;;5031253;28;20325;-72
2023/01/05 01:23:36;;;;;;;;;;;9.70;99.90;;;;;;5053532;28;19986;-73
2023/01/05 01:26:09;;;;;;;;;;;9.80;99.90;;;;;;5051296;28;20383;-72
2023/01/05 01:28:39;;;;;;;;;;;9.80;99.90;;;;;;5055644;28;19936;-72
2023/01/05 01:31:09;;;;;;;;;;;9.80;99.90;;;;;;5054303;28;19978;-72
2023/01/05 01:33:38;;;;;;;;;;;9.80;99.90;;;;;;5056372;28;19939;-72
2023/01/05 01:36:09;;;;;;;;;;;9.80;99.90;;;;;;5026276;28;19968;-72
2023/01/05 01:38:38;;;;;;;;;;;9.80;99.90;;;;;;5040692;28;19967;-72
2023/01/05 01:41:08;;;;;;;;;;;9.80;99.90;;;;;;5055958;28;19933;-71
2023/01/05 01:43:44;;;;;;;;;;;9.80;99.90;;;;;;5040422;28;19925;-71
2023/01/05 01:46:15;;;;;;;;;;;9.80;99.90;;;;;;5063438;28;19928;-72
2023/01/05 01:48:53;;;;;;;;;;;9.80;99.90;;;;;;5056653;28;19933;-71
2023/01/05 01:51:25;;;;;;;;;;;9.80;99.90;;;;;;5073876;28;19931;-71
2023/01/05 01:53:58;;;;;;;;;;;9.90;99.90;;;;;;5048106;28;19953;-72
2023/01/05 01:56:31;;;;;;;;;;;9.90;99.90;;;;;;5059033;28;19935;-72
2023/01/05 01:59:01;;;;;;;;;;;9.90;99.90;;;;;;5079693;28;19951;-72
2023/01/05 02:01:30;;;;;;;;;;;9.80;99.90;;;;;;5052046;28;20168;-72
2023/01/05 02:04:00;;;;;;;;;;;9.80;99.90;;;;;;5039041;28;19924;-72
2023/01/05 02:06:29;;;;;;;;;;;9.70;99.90;;;;;;5045208;28;19936;-72
2023/01/05 02:08:58;;;;;;;;;;;9.60;99.90;;;;;;5061241;28;19935;-72
2023/01/05 02:11:39;;;;;;;;;;;9.50;99.90;;;;;;5039318;28;20292;-72
2023/01/05 02:14:13;;;;;;;;;;;9.40;99.90;;;;;;5058564;28;20436;-72
2023/01/05 02:17:01;;;;;;;;;;;9.40;99.90;;;;;;5042297;28;19975;-72
2023/01/05 02:19:49;;;;;;;;;;;9.30;99.90;;;;;;5059917;28;19924;-72
2023/01/05 02:22:26;;;;;;;;;;;9.30;99.90;;;;;;5053528;28;19929;-72
2023/01/05 02:24:57;;;;;;;;;;;9.20;99.90;;;;;;5035185;28;20349;-72
2023/01/05 02:27:38;;;;;;;;;;;9.20;99.90;;;;;;5065381;28;20012;-72
2023/01/05 02:30:08;;;;;;;;;;;9.30;99.90;;;;;;5040705;28;19935;-72
2023/01/05 02:32:56;;;;;;;;;;;9.30;99.90;;;;;;5055118;28;19978;-72
2023/01/05 02:35:32;;;;;;;;;;;9.30;99.90;;;;;;5044304;28;19932;-72
2023/01/05 02:38:00;;;;;;;;;;;9.30;99.90;;;;;;5048738;28;20273;-72
2023/01/05 02:40:41;;;;;;;;;;;9.30;99.90;;;;;;5042021;28;19925;-72
2023/01/05 02:43:12;;;;;;;;;;;9.30;99.90;;;;;;5039919;28;19960;-72
2023/01/05 02:45:46;;;;;;;;;;;9.30;99.90;;;;;;5054184;28;20676;-72
2023/01/05 02:48:16;;;;;;;;;;;9.30;99.90;;;;;;5047315;28;19938;-72
2023/01/05 02:50:52;;;;;;;;;;;9.30;99.90;;;;;;5062882;28;19931;-72
2023/01/05 02:53:24;;;;;;;;;;;9.30;99.90;;;;;;5055636;28;19939;-72
2023/01/05 02:55:59;;;;;;;;;;;9.40;99.90;;;;;;5031824;28;19924;-71
2023/01/05 02:58:36;;;;;;;;;;;9.40;99.90;;;;;;5052603;28;19978;-72
2023/01/05 03:01:08;;;;;;;;;;;9.40;99.90;;;;;;5040578;28;20007;-72
2023/01/05 03:03:46;;;;;;;;;;;9.40;99.90;;;;;;5057945;28;19978;-71
2023/01/05 03:06:18;;;;;;;;;;;9.50;99.90;;;;;;5038648;28;19976;-71
2023/01/05 03:09:06;;;;;;;;;;;9.40;99.90;;;;;;5059687;28;19932;-72
2023/01/05 03:14:29;;;;;;;;;;;9.50;99.90;;;;;;5058079;28;20014;-72
2023/01/05 03:16:59;;;;;;;;;;;9.50;99.90;;;;;;5048896;28;19924;-72
2023/01/05 03:19:35;;;;;;;;;;;9.60;99.90;;;;;;5033322;28;19929;-72
2023/01/05 03:36:51;;;;;;;;;;;9.70;99.90;;;;;;5075847;28;20027;-71
2023/01/05 03:39:25;;;;;;;;;;;9.80;99.90;;;;;;5044901;28;19928;-72
2023/01/05 03:42:00;;;;;;;;;;;9.80;99.90;;;;;;5039539;28;19929;-72
2023/01/05 03:44:29;;;;;;;;;;;9.90;99.90;;;;;;5055552;28;20036;-72
2023/01/05 03:46:58;;;;;;;;;;;9.80;99.90;;;;;;5059655;28;19929;-71
2023/01/05 03:49:32;;;;;;;;;;;9.80;99.90;;;;;;5056680;28;19924;-72
2023/01/05 03:52:04;;;;;;;;;;;9.80;99.90;;;;;;5058453;28;19928;-72
2023/01/05 03:54:39;;;;;;;;;;;9.80;99.90;;;;;;5054758;28;19993;-71
2023/01/05 03:57:10;;;;;;;;;;;9.80;99.90;;;;;;5055346;28;20416;-71
2023/01/05 03:59:42;;;;;;;;;;;9.80;99.90;;;;;;5051866;28;19925;-72
2023/01/05 04:02:13;;;;;;;;;;;9.80;99.90;;;;;;5057332;28;20464;-72
2023/01/05 04:04:41;;;;;;;;;;;9.80;99.90;;;;;;5053741;28;19928;-72
2023/01/05 04:07:11;;;;;;;;;;;9.80;99.90;;;;;;5044212;28;19924;-72
2023/01/05 04:09:40;;;;;;;;;;;9.80;99.90;;;;;;5053560;28;20295;-72
2023/01/05 04:12:09;;;;;;;;;;;9.80;99.90;;;;;;5056957;28;19928;-72
2023/01/05 04:14:42;;;;;;;;;;;9.90;99.90;;;;;;5041082;28;20390;-72
2023/01/05 04:17:11;;;;;;;;;;;9.90;99.90;;;;;;5061922;28;19936;-72
2023/01/05 04:19:40;;;;;;;;;;;9.90;99.90;;;;;;5059853;28;19925;-72
2023/01/05 04:22:10;;;;;;;;;;;9.90;99.90;;;;;;5043330;28;20015;-72
2023/01/05 04:24:39;;;;;;;;;;;9.90;99.90;;;;;;5054928;28;19924;-72
2023/01/05 04:27:11;;;;;;;;;;;9.90;99.90;;;;;;5040399;28;19928;-72
2023/01/05 04:29:42;;;;;;;;;;;9.90;99.90;;;;;;5051057;28;19936;-72
2023/01/05 04:32:14;;;;;;;;;;;9.90;99.90;;;;;;5056635;28;19928;-72
2023/01/05 04:34:43;;;;;;;;;;;9.90;99.90;;;;;;5027888;28;20384;-71
2023/01/05 04:37:13;;;;;;;;;;;9.90;99.90;;;;;;5037318;28;19932;-72
2023/01/05 04:39:47;;;;;;;;;;;9.80;99.90;;;;;;5035772;28;19988;-72
2023/01/05 04:42:16;;;;;;;;;;;9.90;99.90;;;;;;5050613;28;19929;-72
2023/01/05 04:44:53;;;;;;;;;;;9.90;99.90;;;;;;5049591;28;19925;-72
2023/01/05 04:47:21;;;;;;;;;;;9.80;99.90;;;;;;5039566;28;19936;-72
2023/01/05 04:49:51;;;;;;;;;;;9.90;99.90;;;;;;5040402;28;19929;-72
2023/01/05 04:52:21;;;;;;;;;;;9.90;99.90;;;;;;5040920;28;19929;-72
2023/01/05 04:54:50;;;;;;;;;;;9.90;99.90;;;;;;5043489;28;19954;-70
2023/01/05 04:57:19;;;;;;;;;;;9.90;99.90;;;;;;5042643;28;19952;-71
2023/01/05 04:59:48;;;;;;;;;;;9.90;99.90;;;;;;5051249;28;19950;-72
2023/01/05 05:02:17;;;;;;;;;;;9.90;99.90;;;;;;5058510;28;19925;-72
2023/01/05 05:04:50;;;;;;;;;;;10.00;99.90;;;;;;5034566;28;20406;-72
2023/01/05 05:07:20;;;;;;;;;;;9.90;99.90;;;;;;5050465;28;20098;-72
2023/01/05 05:09:50;;;;;;;;;;;9.90;99.90;;;;;;5041776;28;19925;-71
2023/01/05 05:12:20;;;;;;;;;;;9.90;99.90;;;;;;5032902;28;19936;-72
2023/01/05 05:14:51;;;;;;;;;;;9.90;99.90;;;;;;5046069;28;19925;-72
2023/01/05 05:17:20;;;;;;;;;;;9.80;99.90;;;;;;5060617;28;20387;-71
2023/01/05 05:19:49;;;;;;;;;;;9.80;99.90;;;;;;5045038;28;19986;-72
2023/01/05 05:22:23;;;;;;;;;;;9.80;99.90;;;;;;5059654;28;20376;-72
2023/01/05 05:24:53;;;;;;;;;;;9.90;99.90;;;;;;5062555;28;20035;-72
2023/01/05 05:27:26;;;;;;;;;;;9.90;99.90;;;;;;5031911;28;19929;-72
2023/01/05 05:29:59;;;;;;;;;;;9.90;99.90;;;;;;5067041;28;20446;-71
2023/01/05 05:32:29;;;;;;;;;;;9.90;99.90;;;;;;5038222;28;20027;-71
2023/01/05 05:34:59;;;;;;;;;;;9.90;99.90;;;;;;5047246;28;20023;-71
2023/01/05 05:37:28;;;;;;;;;;;9.90;99.90;;;;;;5047635;28;19928;-72
2023/01/05 05:39:58;;;;;;;;;;;9.90;99.90;;;;;;5061700;28;19955;-71
2023/01/05 05:42:27;;;;;;;;;;;10.00;99.90;;;;;;5062713;28;19925;-71
2023/01/05 05:44:56;;;;;;;;;;;9.90;99.90;;;;;;5045663;28;20003;-71
2023/01/05 05:47:26;;;;;;;;;;;9.90;99.90;;;;;;5061348;28;19932;-72
2023/01/05 05:49:55;;;;;;;;;;;9.90;99.90;;;;;;5058592;28;19931;-72
2023/01/05 05:52:24;;;;;;;;;;;9.90;99.90;;;;;;5062233;28;20022;-71
2023/01/05 05:54:54;;;;;;;;;;;9.90;99.90;;;;;;5035623;28;20447;-72
2023/01/05 05:57:23;;;;;;;;;;;9.80;99.90;;;;;;5040435;28;20387;-71
2023/01/05 05:59:52;;;;;;;;;;;9.90;99.90;;;;;;5056106;28;19925;-72
2023/01/05 06:02:21;;;;;;;;;;;9.90;99.90;;;;;;5047772;28;20430;-72
2023/01/05 06:04:50;;;;;;;;;;;9.80;99.90;;;;;;5045344;28;19925;-71
2023/01/05 06:07:19;;;;;;;;;;;9.80;99.90;;;;;;5059118;28;20027;-71
2023/01/05 06:09:49;;;;;;;;;;;9.80;99.90;;;;;;5045132;28;19985;-72
2023/01/05 06:12:21;;;;;;;;;;;9.80;99.90;;;;;;5046282;28;19929;-72
2023/01/05 06:14:51;;;;;;;;;;;9.80;99.90;;;;;;5037567;28;20258;-72
2023/01/05 06:17:21;;;;;;;;;;;9.80;99.90;;;;;;5018180;28;19925;-72
2023/01/05 06:19:51;;;;;;;;;;;9.80;99.90;;;;;;5066417;28;20019;-72
2023/01/05 06:22:19;;;;;;;;;;;9.80;99.90;;;;;;5044932;28;19928;-72
2023/01/05 06:24:48;;;;;;;;;;;9.80;99.90;;;;;;5045505;28;19929;-72
2023/01/05 06:27:17;;;;;;;;;;;9.80;99.90;;;;;;5046502;28;20115;-72
2023/01/05 06:29:51;;;;;;;;;;;9.80;99.90;;;;;;5045156;28;20015;-71
2023/01/05 06:32:22;;;;;;;;;;;9.80;99.90;;;;;;5054494;28;19936;-72
2023/01/05 06:34:54;;;;;;;;;;;9.80;99.90;;;;;;5069072;28;19929;-72
2023/01/05 06:37:22;;;;;;;;;;;9.70;99.90;;;;;;5057643;28;19925;-72
2023/01/05 06:39:50;;;;;;;;;;;9.70;99.90;;;;;;5039140;28;19931;-72
2023/01/05 06:42:21;;;;;;;;;;;9.70;99.90;;;;;;5019601;28;19929;-72
2023/01/05 06:44:51;;;;;;;;;;;9.70;99.90;;;;;;5057100;28;20438;-72
2023/01/05 06:47:20;;;;;;;;;;;9.70;99.90;;;;;;5058294;28;19928;-72
2023/01/05 06:49:49;;;;;;;;;;;9.70;99.90;;;;;;5051020;28;19932;-72
2023/01/05 06:52:19;;;;;;;;;;;9.70;99.90;;;;;;5054302;28;19978;-72
2023/01/05 06:54:47;;;;;;;;;;;9.80;99.90;;;;;;5065049;28;19977;-71
2023/01/05 06:57:18;;;;;;;;;;;9.80;99.90;;;;;;5064420;28;19970;-72
2023/01/05 06:59:48;;;;;;;;;;;9.80;99.90;;;;;;5042362;28;20373;-72
2023/01/05 07:02:16;;;;;;;;;;;9.80;99.90;;;;;;5057733;28;20334;-72
2023/01/05 07:04:45;;;;;;;;;;;9.80;99.90;;;;;;5066244;28;19974;-72
2023/01/05 07:07:16;;;;;;;;;;;9.80;99.90;;;;;;5062099;28;19932;-72
2023/01/05 07:09:48;;;;;;;;;;;9.80;99.90;;;;;;5061807;28;19936;-72
2023/01/05 07:12:16;;;;;;;;;;;9.80;99.90;;;;;;5032572;28;19924;-72
2023/01/05 07:14:47;;;;;;;;;;;9.80;99.90;;;;;;5058348;28;20411;-72
2023/01/05 07:17:17;;;;;;;;;;;9.80;99.90;;;;;;5027784;28;19963;-72
2023/01/05 07:19:46;;;;;;;;;;;9.80;99.90;;;;;;5041679;28;19925;-72
2023/01/05 07:22:16;;;;;;;;;;;9.80;99.90;;;;;;5047299;28;20027;-72
2023/01/05 07:24:45;;;;;;;;;;;9.80;99.90;;;;;;5043264;28;19932;-72
2023/01/05 07:27:14;;;;;;;;;;;9.80;99.90;;;;;;5039552;28;19947;-72
2023/01/05 07:29:43;;;;;;;;;;;9.80;99.90;;;;;;5052374;28;19925;-71
2023/01/05 07:32:16;;;;;;;;;;;9.80;99.90;;;;;;5052260;28;19947;-72
2023/01/05 07:34:45;;;;;;;;;;;9.90;99.90;;;;;;5043710;28;19929;-72
2023/01/05 07:37:15;;;;;;;;;;;9.80;99.90;;;;;;5042137;28;20361;-72
2023/01/05 07:39:42;;;;;;;;;;;9.80;99.90;;;;;;5034224;28;19928;-72
2023/01/05 07:42:12;;;;;;;;;;;9.80;99.90;;;;;;5051045;28;19928;-72
2023/01/05 07:44:42;;;;;;;;;;;9.80;99.90;;;;;;5011875;28;19947;-72
2023/01/05 07:47:11;;;;;;;;;;;9.70;99.90;;;;;;5046840;28;19924;-72
2023/01/05 07:49:40;;;;;;;;;;;9.60;99.90;;;;;;5033261;28;19925;-72
2023/01/05 07:52:10;;;;;;;;;;;9.60;99.90;;;;;;5049098;28;19976;-72
2023/01/05 07:54:37;;;;;;;;;;;9.50;99.90;;;;;;5061270;28;20311;-72
2023/01/05 07:57:09;;;;;;;;;;;9.40;99.90;;;;;;5063378;28;19932;-72
2023/01/05 07:59:37;;;;;;;;;;;9.40;99.90;;;;;;5061964;28;19929;-72
2023/01/05 08:02:09;;;;;;;;;;;9.40;99.90;;;;;;5081791;28;19931;-72
2023/01/05 08:04:38;;;;;;;;;;;9.40;99.90;;;;;;5048765;28;19924;-72
2023/01/05 08:07:10;;;;;;;;;;;9.40;99.90;;;;;;5028801;28;20438;-72
2023/01/05 08:12:29;;;;;;;;;;;9.30;99.90;;;;;;5045425;28;20007;-72
2023/01/05 08:14:58;;;;;;;;;;;9.40;99.90;;;;;;5048478;28;19950;-72
2023/01/05 08:17:27;;;;;;;;;;;9.40;99.90;;;;;;5037878;28;19975;-72
2023/01/05 08:19:57;;;;;;;;;;;9.40;99.90;;;;;;5059141;28;19963;-72
2023/01/05 08:22:27;;;;;;;;;;;9.50;99.90;;;;;;5059431;28;20556;-72
2023/01/05 08:24:56;;;;;;;;;;;9.50;99.90;;;;;;5060022;28;20020;-72
2023/01/05 08:27:25;;;;;;;;;;;9.40;99.90;;;;;;5057759;28;19948;-72
2023/01/05 08:29:53;;;;;;;;;;;9.40;99.90;;;;;;5046043;28;19948;-72
2023/01/05 08:32:30;;;;;;;;;;;9.50;99.90;;;;;;5062040;28;19931;-72
2023/01/05 08:35:06;;;;;;;;;;;9.50;99.90;;;;;;5045143;28;20108;-72
2023/01/05 08:37:34;;;;;;;;;;;9.50;99.90;;;;;;5051820;28;20345;-72
2023/01/05 08:40:03;;;;;;;;;;;9.60;99.90;;;;;;5040589;28;19946;-72
2023/01/05 08:42:32;;;;;;;;;;;9.70;99.90;;;;;;5043563;28;19924;-72
2023/01/05 08:45:01;;;;;;;;;;;9.70;99.90;;;;;;5038244;28;19972;-72
2023/01/05 08:47:31;;;;;;;;;;;9.70;99.90;;;;;;5025997;28;19931;-72
2023/01/05 08:49:59;;;;;;;;;;;9.70;99.90;;;;;;5034434;28;20323;-72
2023/01/05 08:52:29;;;;;;;;;;;9.70;99.90;;;;;;5043321;28;19928;-72
2023/01/05 08:55:01;;;;;;;;;;;9.70;99.90;;;;;;5058660;28;19988;-72
2023/01/05 08:57:31;;;;;;;;;;;9.70;99.90;;;;;;5057113;28;20195;-72
2023/01/05 09:00:01;;;;;;;;;;;9.80;99.90;;;;;;5050766;28;19939;-72
2023/01/05 09:02:32;;;;;;;;;;;9.90;99.90;;;;;;5048066;28;19925;-72
2023/01/05 09:05:02;;;;;;;;;;;9.90;99.90;;;;;;5047697;28;19935;-72
2023/01/05 09:07:31;;;;;;;;;;;9.90;99.90;;;;;;5053965;28;20369;-72
2023/01/05 09:10:03;;;;;;;;;;;9.90;99.90;;;;;;5052820;28;20296;-72
2023/01/05 09:12:35;;;;;;;;;;;10.00;99.90;;;;;;5043896;28;19925;-72
2023/01/05 09:15:05;;;;;;;;;;;10.00;99.90;;;;;;5035300;28;19970;-72
2023/01/05 09:17:37;;;;;;;;;;;10.10;99.90;;;;;;5030435;28;19925;-72
2023/01/05 09:20:07;;;;;;;;;;;10.10;99.90;;;;;;5031461;28;20567;-72
2023/01/05 09:22:36;;;;;;;;;;;10.10;99.90;;;;;;5041630;28;19929;-72
2023/01/05 09:25:06;;;;;;;;;;;10.20;99.90;;;;;;5032281;28;19932;-73
2023/01/05 09:27:35;;;;;;;;;;;10.20;99.90;;;;;;5037759;28;19931;-72
2023/01/05 09:30:04;;;;;;;;;;;10.20;99.90;;;;;;5055465;28;20370;-72
2023/01/05 09:32:36;;;;;;;;;;;10.30;99.90;;;;;;5044866;28;19948;-73
2023/01/05 09:35:06;;;;;;;;;;;10.20;99.90;;;;;;5051870;28;19971;-73
2023/01/05 09:37:35;;;;;;;;;;;10.20;99.90;;;;;;5034252;28;19928;-73
2023/01/05 09:40:04;;;;;;;;;;;10.30;99.90;;;;;;5052970;28;20022;-72
2023/01/05 09:42:38;;;;;;;;;;;10.30;99.90;;;;;;5045715;28;19924;-72
2023/01/05 09:45:12;;;;;;;;;;;10.30;99.90;;;;;;5031720;28;20288;-72
2023/01/05 09:47:45;;;;;;;;;;;10.30;99.90;;;;;;5045489;28;20023;-75
2023/01/05 09:50:24;;;;;;;;;;;10.30;99.90;;;;;;5050476;28;19971;-72
2023/01/05 09:52:56;;;;;;;;;;;10.40;99.90;;;;;;5045679;28;19931;-72
2023/01/05 09:55:26;;;;;;;;;;;10.40;99.90;;;;;;5035300;28;20119;-72
2023/01/05 09:57:59;;;;;;;;;;;10.50;99.90;;;;;;5045158;28;19932;-73
2023/01/05 10:00:32;;;;;;;;;;;10.50;99.90;;;;;;5051808;28;19925;-72
2023/01/05 10:03:05;;;;;;;;;;;10.60;99.90;;;;;;5036240;28;19924;-72
2023/01/05 10:05:39;;;;;;;;;;;10.60;99.90;;;;;;5053777;28;19932;-72
2023/01/05 10:08:19;;;;;;;;;;;10.60;99.90;;;;;;5035172;28;19925;-72
2023/01/05 10:13:56;;;;;;;;;;;10.60;99.90;;;;;;5057675;28;19928;-72
2023/01/05 10:16:29;;;;;;;;;;;10.70;99.90;;;;;;5064398;28;20310;-72
2023/01/05 10:19:00;;;;;;;;;;;10.70;99.90;;;;;;5047850;28;19964;-72
2023/01/05 10:21:46;;;;;;;;;;;10.70;99.90;;;;;;5047346;28;20027;-72
2023/01/05 10:24:41;;;;;;;;;;;10.60;99.90;;;;;;5036516;28;19975;-72
2023/01/05 10:27:14;;;;;;;;;;;10.60;99.90;;;;;;5053072;28;19925;-72
2023/01/05 10:29:45;;;;;;;;;;;10.70;99.90;;;;;;5060953;28;20284;-72
2023/01/05 10:32:16;;;;;;;;;;;10.70;99.90;;;;;;5051055;28;19925;-71
2023/01/05 10:34:54;;;;;;;;;;;10.70;99.90;;;;;;5044926;28;19929;-72
2023/01/05 10:37:37;;;;;;;;;;;10.70;99.90;;;;;;5048144;28;20292;-72
2023/01/05 10:40:12;;;;;;;;;;;10.70;99.90;;;;;;5056273;28;20024;-72
2023/01/05 10:43:10;;;;;;;;;;;10.70;99.90;;;;;;5038935;28;20301;-73
2023/01/05 10:45:48;;;;;;;;;;;10.70;99.90;;;;;;5042201;28;20011;-72
2023/01/05 10:48:19;;;;;;;;;;;10.60;99.90;;;;;;5044108;28;20288;-72
2023/01/05 10:50:48;;;;;;;;;;;10.60;99.90;;;;;;5041646;28;20059;-72
2023/01/05 10:53:21;;;;;;;;;;;10.60;99.90;;;;;;5070143;28;19931;-72
2023/01/05 10:55:50;;;;;;;;;;;10.60;99.90;;;;;;5059379;28;19925;-72
2023/01/05 10:58:26;;;;;;;;;;;10.60;99.90;;;;;;5047096;28;20441;-71
2023/01/05 11:01:01;;;;;;;;;;;10.50;99.90;;;;;;5060231;28;19931;-72
2023/01/05 11:03:36;;;;;;;;;;;10.60;99.90;;;;;;5064017;28;19935;-71
2023/01/05 11:06:17;;;;;;;;;;;10.60;99.90;;;;;;5074302;28;19935;-72
2023/01/05 11:08:50;;;;;;;;;;;10.70;99.90;;;;;;5079416;28;20059;-72
2023/01/05 11:11:25;;;;;;;;;;;10.70;99.90;;;;;;5067350;28;19932;-72
2023/01/05 11:13:57;;;;;;;;;;;10.70;99.90;;;;;;5056127;28;19964;-72
2023/01/05 11:16:33;;;;;;;;;;;10.70;99.90;;;;;;5062280;28;19967;-72
2023/01/05 11:19:11;;;;;;;;;;;10.70;99.90;;;;;;5062596;28;19924;-72
2023/01/05 11:21:44;;;;;;;;;;;10.80;99.90;;;;;;5034988;28;20028;-72
2023/01/05 11:24:32;;;;;;;;;;;10.90;99.90;;;;;;5046526;28;19925;-72
2023/01/05 11:27:12;;;;;;;;;;;10.90;99.90;;;;;;5045754;28;20451;-72
2023/01/05 11:29:43;;;;;;;;;;;10.90;99.90;;;;;;5052779;28;19931;-72
2023/01/05 11:32:15;;;;;;;;;;;10.90;99.90;;;;;;5053835;28;19947;-72
2023/01/05 11:34:44;;;;;;;;;;;10.90;99.90;;;;;;5036767;28;19939;-72
2023/01/05 11:37:24;;;;;;;;;;;10.80;99.90;;;;;;5038884;28;19929;-72
2023/01/05 11:39:53;;;;;;;;;;;10.90;99.90;;;;;;5036398;28;19929;-73
2023/01/05 11:42:25;;;;;;;;;;;10.80;99.90;;;;;;5047100;28;19934;-72
2023/01/05 11:44:55;;;;;;;;;;;10.90;99.90;;;;;;5035961;28;20349;-72
2023/01/05 11:47:46;;;;;;;;;;;10.90;99.90;;;;;;5049630;28;20297;-72
2023/01/05 11:50:23;;;;;;;;;;;10.90;99.90;;;;;;5035496;28;19931;-72
2023/01/05 11:52:53;;;;;;;;;;;10.90;99.90;;;;;;5048019;28;20334;-72
2023/01/05 11:55:33;;;;;;;;;;;10.90;99.90;;;;;;5050605;28;19978;-72
2023/01/05 11:58:17;;;;;;;;;;;10.90;99.90;;;;;;5049661;28;19931;-72
2023/01/05 12:01:03;;;;;;;;;;;10.90;99.90;;;;;;5055105;28;19931;-71
2023/01/05 12:03:33;;;;;;;;;;;10.90;99.90;;;;;;5052217;28;19925;-72
2023/01/05 12:06:09;;;;;;;;;;;10.90;99.90;;;;;;5034452;28;19925;-72
2023/01/05 12:08:51;;;;;;;;;;;10.90;99.90;;;;;;5036622;28;20553;-72
2023/01/05 12:11:19;;;;;;;;;;;10.90;99.90;;;;;;5024440;28;19929;-72
2023/01/05 12:14:07;;;;;;;;;;;10.90;99.90;;;;;;5053005;28;19924;-72
2023/01/05 12:16:42;;;;;;;;;;;10.90;99.90;;;;;;5057385;28;19935;-72
2023/01/05 12:19:25;;;;;;;;;;;11.00;99.90;;;;;;5059192;28;19932;-73
2023/01/05 12:21:55;;;;;;;;;;;10.90;99.90;;;;;;5044994;28;19936;-71
2023/01/05 12:24:56;;;;;;;;;;;11.00;99.90;;;;;;5053227;28;20004;-72
2023/01/05 12:27:43;;;;;;;;;;;11.00;99.90;;;;;;4997921;28;19925;-72
2023/01/05 12:30:44;;;;;;;;;;;11.10;99.90;;;;;;5046299;28;19925;-72
2023/01/05 12:33:22;;;;;;;;;;;11.10;99.90;;;;;;5041008;28;19974;-72
2023/01/05 12:35:51;;;;;;;;;;;11.20;99.90;;;;;;5044188;28;20385;-71
2023/01/05 12:38:19;;;;;;;;;;;11.10;99.90;;;;;;5032183;28;20383;-72
2023/01/05 12:40:59;;;;;;;;;;;11.20;99.90;;;;;;5034318;28;19928;-72
2023/01/05 12:43:29;;;;;;;;;;;11.10;99.90;;;;;;5048580;28;19937;-72
2023/01/05 12:46:07;;;;;;;;;;;11.10;99.90;;;;;;5032717;28;19929;-73
2023/01/05 12:48:45;;;;;;;;;;;11.00;99.90;;;;;;5050743;28;20028;-74
2023/01/05 12:51:21;;;;;;;;;;;10.90;99.90;;;;;;5053582;28;19931;-72
2023/01/05 12:53:53;;;;;;;;;;;10.80;99.90;;;;;;5056593;28;20015;-72
2023/01/05 12:56:32;;;;;;;;;;;10.70;99.90;;;;;;5037978;28;20434;-72
2023/01/05 12:59:22;;;;;;;;;;;10.60;99.90;;;;;;5026772;28;19925;-72
2023/01/05 13:01:58;;;;;;;;;;;10.60;99.90;;;;;;5051425;28;20019;-72
2023/01/05 13:04:37;;;;;;;;;;;10.50;99.90;;;;;;5029563;28;20495;-72
2023/01/05 13:07:12;;;;;;;;;;;10.50;99.90;;;;;;5034253;28;19932;-75
2023/01/05 13:09:42;;;;;;;;;;;10.40;99.90;;;;;;5041532;28;21320;-73
2023/01/05 13:12:14;;;;;;;;;;;10.30;99.90;;;;;;5041695;28;19963;-72
2023/01/05 13:15:03;;;;;;;;;;;10.30;99.90;;;;;;5047676;28;19933;-72
2023/01/05 13:17:37;;;;;;;;;;;10.20;99.90;;;;;;5046877;28;19987;-72
2023/01/05 13:20:24;;;;;;;;;;;10.20;99.90;;;;;;5051924;28;20399;-72
2023/01/05 13:23:02;;;;;;;;;;;10.10;99.90;;;;;;5046368;28;20027;-72
2023/01/05 13:25:35;;;;;;;;;;;10.10;99.90;;;;;;5040428;28;20390;-72
2023/01/05 13:28:05;;;;;;;;;;;10.10;99.90;;;;;;5051562;28;20399;-72
2023/01/05 13:30:38;;;;;;;;;;;10.20;99.90;;;;;;5044613;28;19925;-73
2023/01/05 13:33:10;;;;;;;;;;;10.20;99.90;;;;;;5051820;28;19976;-73
2023/01/05 13:35:48;;;;;;;;;;;10.10;99.90;;;;;;5045512;28;19924;-74
2023/01/05 13:38:33;;;;;;;;;;;10.10;99.90;;;;;;5052050;28;19925;-72
2023/01/05 13:41:26;;;;;;;;;;;10.10;99.90;;;;;;5039581;28;20377;-73
2023/01/05 13:44:19;;;;;;;;;;;10.10;99.90;;;;;;5021720;28;19925;-73
2023/01/05 13:46:55;;;;;;;;;;;10.00;99.90;;;;;;5058502;28;19932;-72
2023/01/05 13:49:34;;;;;;;;;;;10.00;99.90;;;;;;5045065;28;19928;-72
2023/01/05 13:52:22;;;;;;;;;;;10.00;99.90;;;;;;5032772;28;19929;-72
2023/01/05 13:55:00;;;;;;;;;;;9.90;99.90;;;;;;5058757;28;19926;-72
2023/01/05 13:57:36;;;;;;;;;;;9.90;99.90;;;;;;5052319;28;19929;-73
2023/01/05 14:00:20;;;;;;;;;;;9.90;99.90;;;;;;5045419;28;20000;-73
2023/01/05 14:03:17;;;;;;;;;;;9.90;99.90;;;;;;5058850;28;19928;-72
2023/01/05 14:05:55;;;;;;;;;;;9.80;99.90;;;;;;5072880;28;19943;-75
2023/01/05 14:08:41;;;;;;;;;;;9.70;99.90;;;;;;5071090;28;19925;-72
2023/01/05 14:11:16;;;;;;;;;;;9.70;99.90;;;;;;5055008;28;19933;-72
2023/01/05 14:14:28;;;;;;;;;;;9.70;99.90;;;;;;5038541;28;19913;-72
2023/01/05 14:16:56;;;;;;;;;;;9.70;99.90;;;;;;5045835;28;19925;-72
2023/01/05 14:19:26;;;;;;;;;;;9.70;99.90;;;;;;5039967;28;19930;-72
2023/01/05 14:22:06;;;;;;;;;;;9.70;99.90;;;;;;5070609;28;19925;-72
2023/01/05 14:24:41;;;;;;;;;;;9.70;99.90;;;;;;5067587;28;20454;-74
2023/01/05 14:27:16;;;;;;;;;;;9.70;99.90;;;;;;5051751;28;20406;-74
2023/01/05 14:29:48;;;;;;;;;;;9.70;99.90;;;;;;5035708;28;20020;-73
2023/01/05 14:32:35;;;;;;;;;;;9.70;99.90;;;;;;5036189;28;20412;-73
2023/01/05 14:35:08;;;;;;;;;;;9.70;99.90;;;;;;5065576;28;19925;-74
2023/01/05 14:37:40;;;;;;;;;;;9.60;99.90;;;;;;5055589;28;19925;-72
2023/01/05 14:40:14;;;;;;;;;;;9.60;99.90;;;;;;5055365;28;20442;-72
2023/01/05 14:42:46;;;;;;;;;;;9.60;99.90;;;;;;5054255;28;20393;-72
2023/01/05 14:45:20;;;;;;;;;;;9.60;99.90;;;;;;5072261;28;19966;-73
2023/01/05 14:47:59;;;;;;;;;;;9.60;99.90;;;;;;5044954;28;20387;-72
2023/01/05 14:50:36;;;;;;;;;;;9.70;99.90;;;;;;5036630;28;20028;-73
2023/01/05 14:53:11;;;;;;;;;;;9.70;99.90;;;;;;5040077;28;20392;-72
2023/01/05 14:56:00;;;;;;;;;;;9.60;99.90;;;;;;5049778;28;20405;-72
2023/01/05 14:58:35;;;;;;;;;;;9.60;99.90;;;;;;5016395;28;20448;-72
2023/01/05 15:01:23;;;;;;;;;;;9.60;99.90;;;;;;5072725;28;20016;-72
2023/01/05 15:03:58;;;;;;;;;;;9.60;99.90;;;;;;5072990;28;19924;-72
2023/01/05 15:06:30;;;;;;;;;;;9.60;99.90;;;;;;5071302;28;19944;-71
2023/01/05 15:09:18;;;;;;;;;;;9.60;99.90;;;;;;5062263;28;20272;-72
2023/01/05 15:11:53;;;;;;;;;;;9.60;99.90;;;;;;5051411;28;19931;-72
2023/01/05 15:14:33;;;;;;;;;;;9.60;99.90;;;;;;5069313;28;19925;-72
2023/01/05 15:17:18;;;;;;;;;;;9.60;99.90;;;;;;5040168;28;20530;-71
2023/01/05 15:20:25;;;;;;;;;;;9.60;99.90;;;;;;5060449;28;19931;-72
2023/01/05 15:23:00;;;;;;;;;;;9.50;99.90;;;;;;4968689;28;19925;-72
2023/01/05 15:25:35;;;;;;;;;;;9.60;99.90;;;;;;5001100;28;19925;-72
2023/01/05 15:28:26;;;;;;;;;;;9.60;99.90;;;;;;5048898;28;19924;-72
2023/01/05 15:31:15;;;;;;;;;;;9.60;99.90;;;;;;5066520;28;19950;-72
2023/01/05 15:34:02;;;;;;;;;;;9.50;99.90;;;;;;5054549;28;20387;-71
2023/01/05 15:36:34;;;;;;;;;;;9.60;99.90;;;;;;5070427;28;20275;-72
2023/01/05 15:39:20;;;;;;;;;;;9.60;99.90;;;;;;5040290;28;20020;-73